地図

経路データ

SID SEASON NUMBER BASIN SUBBASIN NAME ISO_TIME NATURE LAT LON WMO_WIND WMO_PRES WMO_AGENCY TRACK_TYPE DIST2LAND LANDFALL IFLAG USA_AGENCY USA_ATCF_ID USA_LAT USA_LON USA_RECORD USA_STATUS USA_WIND USA_PRES USA_SSHS USA_R34_NE USA_R34_SE USA_R34_SW USA_R34_NW USA_R50_NE USA_R50_SE USA_R50_SW USA_R50_NW USA_R64_NE USA_R64_SE USA_R64_SW USA_R64_NW USA_POCI USA_ROCI USA_RMW USA_EYE TOKYO_LAT TOKYO_LON TOKYO_GRADE TOKYO_WIND TOKYO_PRES TOKYO_R50_DIR TOKYO_R50_LONG TOKYO_R50_SHORT TOKYO_R30_DIR TOKYO_R30_LONG TOKYO_R30_SHORT TOKYO_LAND CMA_LAT CMA_LON CMA_CAT CMA_WIND CMA_PRES HKO_LAT HKO_LON HKO_CAT HKO_WIND HKO_PRES NEWDELHI_LAT NEWDELHI_LON NEWDELHI_GRADE NEWDELHI_WIND NEWDELHI_PRES NEWDELHI_CI NEWDELHI_DP NEWDELHI_POCI REUNION_LAT REUNION_LON REUNION_TYPE REUNION_WIND REUNION_PRES REUNION_TNUM REUNION_CI REUNION_RMW REUNION_R34_NE REUNION_R34_SE REUNION_R34_SW REUNION_R34_NW REUNION_R50_NE REUNION_R50_SE REUNION_R50_SW REUNION_R50_NW REUNION_R64_NE REUNION_R64_SE REUNION_R64_SW REUNION_R64_NW BOM_LAT BOM_LON BOM_TYPE BOM_WIND BOM_PRES BOM_TNUM BOM_CI BOM_RMW BOM_R34_NE BOM_R34_SE BOM_R34_SW BOM_R34_NW BOM_R50_NE BOM_R50_SE BOM_R50_SW BOM_R50_NW BOM_R64_NE BOM_R64_SE BOM_R64_SW BOM_R64_NW BOM_ROCI BOM_POCI BOM_EYE BOM_POS_METHOD BOM_PRES_METHOD NADI_LAT NADI_LON NADI_CAT NADI_WIND NADI_PRES WELLINGTON_LAT WELLINGTON_LON WELLINGTON_WIND WELLINGTON_PRES DS824_LAT DS824_LON DS824_STAGE DS824_WIND DS824_PRES TD9636_LAT TD9636_LON TD9636_STAGE TD9636_WIND TD9636_PRES TD9635_LAT TD9635_LON TD9635_WIND TD9635_PRES TD9635_ROCI NEUMANN_LAT NEUMANN_LON NEUMANN_CLASS NEUMANN_WIND NEUMANN_PRES MLC_LAT MLC_LON MLC_CLASS MLC_WIND MLC_PRES USA_GUST BOM_GUST BOM_GUST_PER REUNION_GUST REUNION_GUST_PER USA_SEAHGT USA_SEARAD_NE USA_SEARAD_SE USA_SEARAD_SW USA_SEARAD_NW STORM_SPEED STORM_DIR
1906279N17117 1906 43 WP MM NOT_NAMED 1906-10-06 04:00:00 NR 17.0000 116.600 main 349 349 __________O___ -1 17.0000 116.600 2 11 264
1906279N17117 1906 43 WP MM NOT_NAMED 1906-10-06 06:00:00 NR 16.9635 116.214 main 389 389 __________P___ -1 16.9635 116.214 2 11 264
1906279N17117 1906 43 WP MM NOT_NAMED 1906-10-06 09:00:00 NR 16.9092 115.642 main 448 448 __________P___ -1 16.9092 115.642 2 11 264
1906279N17117 1906 43 WP MM NOT_NAMED 1906-10-06 12:00:00 NR 16.8581 115.089 main 500 488 __________P___ -1 16.8581 115.089 2 10 265
1906279N17117 1906 43 WP MM NOT_NAMED 1906-10-06 15:00:00 NR 16.8131 114.566 main 488 469 __________P___ -1 16.8131 114.566 2 10 265
1906279N17117 1906 43 WP MM NOT_NAMED 1906-10-06 16:00:00 NR 16.8000 114.400 main 469 442 __________O___ -1 16.8000 114.400 2 9 266
1906279N17117 1906 43 WP MM NOT_NAMED 1906-10-06 18:00:00 NR 16.7771 114.083 main 442 403 __________P___ -1 16.7771 114.083 2 9 266
1906279N17117 1906 43 WP MM NOT_NAMED 1906-10-06 21:00:00 NR 16.7494 113.632 main 403 370 __________P___ -1 16.7494 113.632 2 9 267
1906279N17117 1906 43 WP MM NOT_NAMED 1906-10-07 00:00:00 NR 16.7270 113.194 main 370 338 __________P___ -1 16.7270 113.194 2 8 267
1906279N17117 1906 43 WP MM NOT_NAMED 1906-10-07 03:00:00 NR 16.7068 112.752 main 338 323 __________P___ -1 16.7068 112.752 2 9 267
1906279N17117 1906 43 WP MM NOT_NAMED 1906-10-07 04:00:00 NR 16.7000 112.600 main 323 300 __________O___ -1 16.7000 112.600 2 9 267
1906279N17117 1906 43 WP MM NOT_NAMED 1906-10-07 06:00:00 NR 16.6806 112.275 main 300 268 __________P___ -1 16.6806 112.275 2 10 266
1906279N17117 1906 43 WP MM NOT_NAMED 1906-10-07 09:00:00 NR 16.6516 111.776 main 268 244 __________P___ -1 16.6516 111.776 2 10 267
1906279N17117 1906 43 WP MM NOT_NAMED 1906-10-07 12:00:00 NR 16.6253 111.270 main 244 213 __________P___ -1 16.6253 111.270 2 10 267
1906279N17117 1906 43 WP MM NOT_NAMED 1906-10-07 15:00:00 NR 16.6049 110.766 main 213 202 __________P___ -1 16.6049 110.766 2 10 268
1906279N17117 1906 43 WP MM NOT_NAMED 1906-10-07 16:00:00 NR 16.6000 110.600 main 202 190 __________O___ -1 16.6000 110.600 2 9 269
1906279N17117 1906 43 WP MM NOT_NAMED 1906-10-07 18:00:00 NR 16.5934 110.273 main 190 173 __________P___ -1 16.5934 110.273 2 9 269
1906279N17117 1906 43 WP MM NOT_NAMED 1906-10-07 21:00:00 NR 16.5903 109.793 main 173 126 __________P___ -1 16.5903 109.793 2 9 270
1906279N17117 1906 43 WP MM NOT_NAMED 1906-10-08 00:00:00 NR 16.5928 109.322 main 126 92 __________P___ -1 16.5928 109.322 2 9 270
1906279N17117 1906 43 WP MM NOT_NAMED 1906-10-08 03:00:00 NR 16.5981 108.855 main 92 78 __________P___ -1 16.5981 108.855 2 9 271
1906279N17117 1906 43 WP MM NOT_NAMED 1906-10-08 04:00:00 NR 16.6000 108.700 main 78 __________O___ -1 16.6000 108.700 2 9 271

デジタル台風データ・検索

IBTrACS Databaseについて

本データベースは、米国NOAAが公開する1842年以降の世界の熱帯低気圧のベストトラックデータアーカイブInternational Best Track Archive for Climate Stewardship (IBTrACS)を、ウェブで閲覧しやすい形式に変換したものです。

最終更新日:2021-12-01